Time;durP1;ratioP1;P1;durP2;ratioP2;P2;SDS_P1;SDS_P2;PMS_P1;PMS_P2;Temp;Humidity;BMP_temperature;BMP_pressure;BME280_temperature;BME280_humidity;BME280_pressure;Samples;Min_cycle;Max_cycle;Signal;HPM_P1;HPM_P2
2024/01/04 00:01:47;;;;;;;31.73;17.07;;;2.10;99.90;;;;;;4193342;28;20307;-63
2024/01/04 00:03:49;;;;;;;29.90;16.47;;;2.10;99.90;;;;;;4193959;28;20695;-64
2024/01/04 00:05:50;;;;;;;33.50;17.40;;;2.10;99.90;;;;;;4194157;28;20327;-62
2024/01/04 00:07:51;;;;;;;34.93;17.37;;;2.20;99.90;;;;;;4193704;28;20849;-63
2024/01/04 00:09:52;;;;;;;35.97;18.73;;;2.20;99.90;;;;;;4193628;28;20803;-62
2024/01/04 00:11:53;;;;;;;45.03;20.47;;;2.30;99.90;;;;;;4193764;28;20776;-62
2024/01/04 00:13:54;;;;;;;38.23;18.63;;;2.30;99.90;;;;;;4193293;28;20265;-63
2024/01/04 00:15:56;;;;;;;41.93;19.47;;;2.40;99.90;;;;;;4193854;28;20257;-64
2024/01/04 00:17:57;;;;;;;36.50;19.07;;;2.40;99.90;;;;;;4193931;28;20905;-63
2024/01/04 00:19:58;;;;;;;43.97;20.23;;;2.40;99.90;;;;;;4193513;28;20268;-62
2024/01/04 00:22:00;;;;;;;43.27;21.20;;;2.50;99.90;;;;;;4193234;28;20277;-62
2024/01/04 00:24:01;;;;;;;46.83;20.87;;;2.50;99.90;;;;;;4194093;28;20269;-63
2024/01/04 00:26:03;;;;;;;38.67;20.30;;;2.50;99.90;;;;;;4193411;28;20277;-63
2024/01/04 00:28:04;;;;;;;50.30;20.93;;;2.60;99.90;;;;;;4193919;28;20261;-64
2024/01/04 00:30:06;;;;;;;50.77;23.57;;;2.60;99.90;;;;;;4190558;28;20311;-61
2024/01/04 00:32:07;;;;;;;52.77;24.63;;;2.70;99.90;;;;;;4193427;28;20301;-62
2024/01/04 00:34:08;;;;;;;66.97;29.30;;;2.70;99.90;;;;;;4192786;28;20261;-64
2024/01/04 00:36:10;;;;;;;56.03;26.87;;;2.80;99.90;;;;;;4193409;28;20351;-62
2024/01/04 00:38:11;;;;;;;51.43;23.50;;;2.80;99.90;;;;;;4193571;28;20338;-63
2024/01/04 00:40:12;;;;;;;38.43;19.27;;;2.80;99.90;;;;;;4193522;28;20270;-62
2024/01/04 00:42:13;;;;;;;33.90;16.80;;;2.80;99.90;;;;;;4192944;28;20281;-62
2024/01/04 00:44:15;;;;;;;31.40;16.93;;;2.80;99.90;;;;;;4193166;28;20285;-64
2024/01/04 00:46:16;;;;;;;30.13;16.60;;;2.90;99.90;;;;;;4193357;28;20261;-62
2024/01/04 00:48:17;;;;;;;29.07;15.40;;;2.90;99.90;;;;;;4193472;28;20269;-62
2024/01/04 00:50:18;;;;;;;45.10;20.93;;;3.00;99.90;;;;;;4193076;28;20266;-63
2024/01/04 00:52:19;;;;;;;41.60;20.87;;;3.00;99.90;;;;;;4193328;28;20285;-61
2024/01/04 00:54:20;;;;;;;37.97;20.57;;;3.00;99.90;;;;;;4193047;28;20254;-62
2024/01/04 00:56:21;;;;;;;41.57;19.37;;;3.10;99.90;;;;;;4192584;28;20269;-63
2024/01/04 00:58:23;;;;;;;35.10;17.60;;;3.10;99.90;;;;;;4193617;28;20398;-61
2024/01/04 01:00:24;;;;;;;32.83;17.53;;;3.20;99.90;;;;;;4193125;28;20680;-62
2024/01/04 01:02:25;;;;;;;30.00;17.53;;;3.20;99.90;;;;;;4193467;28;20257;-64
2024/01/04 01:04:26;;;;;;;37.57;19.83;;;3.20;99.90;;;;;;4193079;28;20277;-64
2024/01/04 01:06:28;;;;;;;31.13;16.60;;;3.30;99.90;;;;;;4192483;28;20296;-64
2024/01/04 01:08:29;;;;;;;28.13;15.23;;;3.30;99.90;;;;;;4192678;28;20323;-64
2024/01/04 01:10:32;;;;;;;21.70;13.40;;;3.40;99.90;;;;;;4192856;28;20266;-64
2024/01/04 01:12:33;;;;;;;21.70;13.00;;;3.40;99.90;;;;;;4193174;28;20332;-61
2024/01/04 01:14:34;;;;;;;19.27;11.40;;;3.50;99.90;;;;;;4193008;28;20331;-63
2024/01/04 01:16:35;;;;;;;23.17;13.37;;;3.50;99.90;;;;;;4192766;28;20488;-63
2024/01/04 01:18:38;;;;;;;31.33;17.23;;;3.50;99.90;;;;;;4193456;28;20261;-64
2024/01/04 01:20:39;;;;;;;29.00;16.63;;;3.40;99.90;;;;;;4192549;28;20311;-62
2024/01/04 01:22:40;;;;;;;32.47;18.13;;;3.30;99.90;;;;;;4192572;28;20258;-62
2024/01/04 01:24:42;;;;;;;36.33;18.73;;;3.10;99.90;;;;;;4192667;28;20326;-63
2024/01/04 01:26:44;;;;;;;34.03;19.03;;;3.00;99.90;;;;;;4192979;28;20327;-64
2024/01/04 01:28:45;;;;;;;35.60;18.73;;;2.90;99.90;;;;;;4193355;28;20258;-62
2024/01/04 01:30:46;;;;;;;36.07;19.27;;;2.80;99.90;;;;;;4190965;28;20270;-61
2024/01/04 01:32:47;;;;;;;35.33;19.87;;;2.70;99.90;;;;;;4192242;28;20281;-62
2024/01/04 01:34:48;;;;;;;35.47;19.70;;;2.70;99.90;;;;;;4192953;28;20274;-62
2024/01/04 01:36:49;;;;;;;35.30;20.03;;;2.70;99.90;;;;;;4192333;28;20315;-62
2024/01/04 01:38:50;;;;;;;37.20;20.13;;;2.60;99.90;;;;;;4174977;28;20778;-62
2024/01/04 01:40:52;;;;;;;34.27;19.90;;;2.60;99.90;;;;;;4192334;28;20278;-61
2024/01/04 01:42:53;;;;;;;36.23;20.00;;;2.60;99.90;;;;;;4190787;28;20323;-61
2024/01/04 01:44:54;;;;;;;33.90;17.70;;;2.60;99.90;;;;;;4192368;28;20303;-63
2024/01/04 01:46:56;;;;;;;36.97;19.13;;;2.50;99.90;;;;;;4174352;28;20270;-61
2024/01/04 01:48:57;;;;;;;29.57;16.03;;;2.60;99.90;;;;;;4192797;28;20269;-62
2024/01/04 01:50:59;;;;;;;31.07;16.20;;;2.70;99.90;;;;;;4192792;28;20347;-62
2024/01/04 01:53:00;;;;;;;33.57;18.40;;;2.70;99.90;;;;;;4192253;28;20265;-62
2024/01/04 01:55:02;;;;;;;29.97;17.13;;;2.80;99.90;;;;;;4174439;28;20336;-62
2024/01/04 01:57:04;;;;;;;27.83;14.93;;;2.70;99.90;;;;;;4192564;28;20265;-60
2024/01/04 01:59:05;;;;;;;29.10;17.43;;;2.70;99.90;;;;;;4192112;28;20277;-62
2024/01/04 02:01:07;;;;;;;36.37;16.53;;;2.70;99.90;;;;;;4192251;28;20299;-62
2024/01/04 02:03:08;;;;;;;27.17;15.97;;;2.70;99.90;;;;;;4191673;28;20335;-63
2024/01/04 02:05:10;;;;;;;24.30;13.73;;;2.70;99.90;;;;;;4191916;28;20342;-64
2024/01/04 02:07:11;;;;;;;20.07;12.63;;;2.60;99.90;;;;;;4192847;28;20274;-62
2024/01/04 02:09:12;;;;;;;21.57;13.03;;;2.60;99.90;;;;;;4192017;28;20261;-63
2024/01/04 02:11:13;;;;;;;20.70;12.70;;;2.50;99.90;;;;;;4192475;28;20765;-63
2024/01/04 02:13:14;;;;;;;20.80;11.67;;;2.50;99.90;;;;;;4192726;28;20327;-64
2024/01/04 02:15:15;;;;;;;18.47;11.33;;;2.50;99.90;;;;;;4174014;28;20316;-63
2024/01/04 02:17:17;;;;;;;21.57;11.47;;;2.40;99.90;;;;;;4192565;28;20277;-64
2024/01/04 02:19:19;;;;;;;16.97;11.07;;;2.40;99.90;;;;;;4192299;28;20354;-62
2024/01/04 02:21:20;;;;;;;19.07;10.67;;;2.40;99.90;;;;;;4192277;28;20681;-60
2024/01/04 02:23:21;;;;;;;19.63;11.43;;;2.40;99.90;;;;;;4192236;28;20289;-61
2024/01/04 02:25:22;;;;;;;19.97;11.53;;;2.40;99.90;;;;;;4193776;28;20338;-62
2024/01/04 02:27:23;;;;;;;18.43;9.67;;;2.40;99.90;;;;;;4194756;28;20277;-62
2024/01/04 02:29:24;;;;;;;18.43;10.73;;;2.40;99.90;;;;;;4195304;28;20692;-63
2024/01/04 02:31:25;;;;;;;20.17;11.67;;;2.60;99.90;;;;;;4194754;28;20346;-63
2024/01/04 02:33:27;;;;;;;20.83;12.17;;;2.70;99.90;;;;;;4195640;28;20295;-62
2024/01/04 02:35:28;;;;;;;17.00;10.20;;;2.70;99.90;;;;;;4195467;28;20677;-63
2024/01/04 02:37:29;;;;;;;18.03;10.77;;;2.80;99.90;;;;;;4194579;28;20269;-63
2024/01/04 02:39:30;;;;;;;15.33;9.97;;;2.80;99.90;;;;;;4195717;28;20660;-62
2024/01/04 02:41:31;;;;;;;20.63;11.10;;;2.90;99.90;;;;;;4194567;28;21119;-64
2024/01/04 02:43:32;;;;;;;20.73;11.40;;;2.90;99.90;;;;;;4195635;28;20304;-62
2024/01/04 02:45:33;;;;;;;21.37;12.43;;;2.90;99.90;;;;;;4195254;28;20797;-62
2024/01/04 02:47:36;;;;;;;22.57;13.60;;;2.80;99.90;;;;;;4194733;28;20277;-61
2024/01/04 02:49:38;;;;;;;25.30;10.77;;;2.70;99.90;;;;;;4177440;28;20274;-64
2024/01/04 02:51:39;;;;;;;19.70;11.53;;;2.60;99.90;;;;;;4195498;28;20300;-63
2024/01/04 02:53:40;;;;;;;16.47;11.13;;;2.70;99.90;;;;;;4195240;28;21116;-62
2024/01/04 02:55:41;;;;;;;20.40;10.70;;;2.80;99.90;;;;;;4195256;28;20273;-62
2024/01/04 02:57:43;;;;;;;17.97;11.73;;;2.90;99.90;;;;;;4194533;28;20277;-62
2024/01/04 02:59:44;;;;;;;22.50;12.97;;;2.80;99.90;;;;;;4195009;28;20668;-64
2024/01/04 03:01:48;;;;;;;20.50;12.43;;;2.80;99.90;;;;;;4195080;28;20656;-62
2024/01/04 03:03:55;;;;;;;20.33;12.37;;;2.80;99.90;;;;;;4194830;28;20754;-63
2024/01/04 03:05:56;;;;;;;19.70;10.97;;;2.70;99.90;;;;;;4194757;28;21273;-63
2024/01/04 03:07:58;;;;;;;19.67;12.03;;;2.70;99.90;;;;;;4194879;28;20311;-61
2024/01/04 03:10:01;;;;;;;18.63;11.60;;;2.70;99.90;;;;;;4193932;28;20355;-62
2024/01/04 03:12:02;;;;;;;19.20;11.17;;;2.60;99.90;;;;;;4194964;28;20347;-63
2024/01/04 03:14:04;;;;;;;18.97;11.67;;;2.70;99.90;;;;;;4177050;28;20277;-62
2024/01/04 03:16:05;;;;;;;24.50;12.10;;;2.60;99.90;;;;;;4194479;28;20339;-62
2024/01/04 03:18:06;;;;;;;20.80;12.47;;;2.60;99.90;;;;;;4194918;28;20261;-63
2024/01/04 03:20:08;;;;;;;20.27;11.33;;;2.60;99.90;;;;;;4176848;28;20266;-64
2024/01/04 03:22:09;;;;;;;25.73;13.67;;;2.60;99.90;;;;;;4194851;28;20273;-64
2024/01/04 03:24:10;;;;;;;20.33;11.40;;;2.60;99.90;;;;;;4194818;28;20303;-62
2024/01/04 03:26:12;;;;;;;22.33;12.70;;;2.60;99.90;;;;;;4193875;28;20304;-62
2024/01/04 03:28:13;;;;;;;22.13;12.83;;;2.70;99.90;;;;;;4194031;28;20331;-62
2024/01/04 03:30:16;;;;;;;27.10;13.63;;;2.60;99.90;;;;;;4194030;28;20281;-60
2024/01/04 03:32:17;;;;;;;24.27;13.63;;;2.60;99.90;;;;;;4193587;28;20286;-62
2024/01/04 03:34:18;;;;;;;26.47;13.57;;;2.50;99.90;;;;;;4194686;28;20323;-63
2024/01/04 03:36:19;;;;;;;28.40;13.93;;;2.50;99.90;;;;;;4194267;28;20346;-62
2024/01/04 03:38:20;;;;;;;25.13;13.30;;;2.50;99.90;;;;;;4193972;28;20282;-61
2024/01/04 03:40:22;;;;;;;28.03;13.87;;;2.40;99.90;;;;;;4193804;28;20262;-62
2024/01/04 03:42:23;;;;;;;28.13;14.97;;;2.40;99.90;;;;;;4193692;28;20315;-62
2024/01/04 03:44:24;;;;;;;25.30;14.40;;;2.40;99.90;;;;;;4193643;28;20300;-61
2024/01/04 03:46:25;;;;;;;22.13;13.00;;;2.50;99.90;;;;;;4194334;28;20270;-62
2024/01/04 03:48:26;;;;;;;20.40;12.53;;;2.50;99.90;;;;;;4194674;28;20315;-61
2024/01/04 03:50:27;;;;;;;23.47;12.53;;;2.50;99.90;;;;;;4194112;28;20269;-62
2024/01/04 03:52:28;;;;;;;19.70;12.27;;;2.50;99.90;;;;;;4193742;28;20313;-62
2024/01/04 03:54:30;;;;;;;24.00;11.97;;;2.60;99.90;;;;;;4194277;28;20653;-62
2024/01/04 03:56:31;;;;;;;23.47;13.13;;;2.60;99.90;;;;;;4194277;28;20282;-63
2024/01/04 03:58:33;;;;;;;24.00;12.80;;;2.60;99.90;;;;;;4193753;28;20269;-64
2024/01/04 04:00:34;;;;;;;25.20;15.10;;;2.60;99.90;;;;;;4193091;28;20757;-63
2024/01/04 04:02:36;;;;;;;25.83;14.10;;;2.60;99.90;;;;;;4192336;28;20254;-61
2024/01/04 04:04:37;;;;;;;25.40;13.97;;;2.60;99.90;;;;;;4175973;28;20320;-61
2024/01/04 04:06:38;;;;;;;26.77;14.40;;;2.60;99.90;;;;;;4193939;28;20261;-61
2024/01/04 04:08:39;;;;;;;25.17;13.80;;;2.50;99.90;;;;;;4193876;28;20257;-62
2024/01/04 04:10:43;;;;;;;27.10;14.30;;;2.50;99.90;;;;;;4193181;28;20278;-62
2024/01/04 04:12:44;;;;;;;26.20;14.00;;;2.50;99.90;;;;;;4193827;28;20293;-61
2024/01/04 04:14:45;;;;;;;22.27;13.23;;;2.50;99.90;;;;;;4193175;28;20265;-62
2024/01/04 04:16:47;;;;;;;20.47;12.37;;;2.40;99.90;;;;;;4193119;28;20269;-61
2024/01/04 04:18:48;;;;;;;19.87;10.97;;;2.40;99.90;;;;;;4194481;28;20261;-63
2024/01/04 04:20:49;;;;;;;16.17;8.83;;;2.30;99.90;;;;;;4174972;28;20308;-62
2024/01/04 04:22:50;;;;;;;17.70;9.37;;;2.30;99.90;;;;;;4193812;28;20700;-62
2024/01/04 04:24:51;;;;;;;18.53;9.37;;;2.40;99.90;;;;;;4192984;28;20391;-61
2024/01/04 04:26:53;;;;;;;15.67;9.70;;;2.50;99.90;;;;;;4194149;28;20265;-60
2024/01/04 04:28:54;;;;;;;16.23;10.03;;;2.70;99.90;;;;;;4193618;28;20319;-61
2024/01/04 04:30:55;;;;;;;18.27;11.70;;;2.80;99.90;;;;;;4193618;28;20270;-64
2024/01/04 04:32:56;;;;;;;16.87;10.67;;;2.80;99.90;;;;;;4192721;28;20293;-61
2024/01/04 04:34:57;;;;;;;19.60;11.57;;;2.50;99.90;;;;;;4193012;28;20271;-62
2024/01/04 04:36:59;;;;;;;21.50;12.10;;;2.40;99.90;;;;;;4192623;28;20320;-64
2024/01/04 04:39:02;;;;;;;22.20;12.63;;;2.30;99.90;;;;;;4193726;28;20273;-62
2024/01/04 04:41:07;;;;;;;27.07;15.60;;;2.30;99.90;;;;;;4192794;28;20331;-64
2024/01/04 04:43:08;;;;;;;23.10;12.97;;;2.20;99.90;;;;;;4193453;28;20315;-62
2024/01/04 04:45:09;;;;;;;22.73;13.77;;;2.10;99.90;;;;;;4193577;28;20747;-62
2024/01/04 04:47:10;;;;;;;29.20;15.97;;;2.10;99.90;;;;;;4193629;28;20322;-62
2024/01/04 04:49:11;;;;;;;26.43;14.67;;;2.00;99.90;;;;;;4193136;28;20717;-63
2024/01/04 04:51:12;;;;;;;24.30;14.87;;;2.00;99.90;;;;;;4174916;28;20793;-62
2024/01/04 04:53:14;;;;;;;25.10;14.13;;;2.00;99.90;;;;;;4192743;28;20293;-62
2024/01/04 04:55:15;;;;;;;26.43;15.00;;;1.90;99.90;;;;;;4193293;28;20335;-62
2024/01/04 04:57:16;;;;;;;24.93;12.93;;;2.00;99.90;;;;;;4193361;28;20277;-64
2024/01/04 04:59:17;;;;;;;27.93;15.43;;;2.00;99.90;;;;;;4192750;28;20311;-62
2024/01/04 05:01:18;;;;;;;24.77;13.57;;;2.00;99.90;;;;;;4192384;28;20296;-61
2024/01/04 05:03:19;;;;;;;24.97;13.33;;;2.00;99.90;;;;;;4190841;28;20269;-61
2024/01/04 05:05:21;;;;;;;25.93;13.93;;;2.00;99.90;;;;;;4192545;28;20258;-62
2024/01/04 05:07:22;;;;;;;29.20;15.00;;;2.00;99.90;;;;;;4192953;28;20269;-61
2024/01/04 05:09:23;;;;;;;23.83;14.83;;;2.00;99.90;;;;;;4192878;28;20342;-63
2024/01/04 05:11:24;;;;;;;26.87;15.50;;;2.10;99.90;;;;;;4193245;28;20790;-62
2024/01/04 05:13:25;;;;;;;26.23;16.00;;;2.10;99.90;;;;;;4193159;28;20285;-63
2024/01/04 05:15:27;;;;;;;27.07;14.97;;;2.10;99.90;;;;;;4193106;28;20257;-61
2024/01/04 05:17:28;;;;;;;29.97;15.47;;;2.10;99.90;;;;;;4193155;28;20261;-61
2024/01/04 05:19:29;;;;;;;25.23;16.17;;;2.10;99.90;;;;;;4192696;28;20303;-62
2024/01/04 05:21:33;;;;;;;29.87;17.13;;;2.10;99.90;;;;;;4174398;28;20812;-62
2024/01/04 05:23:34;;;;;;;26.13;14.70;;;2.10;99.90;;;;;;4192232;28;20257;-63
2024/01/04 05:25:36;;;;;;;25.37;14.63;;;2.10;99.90;;;;;;4192357;28;20338;-62
2024/01/04 05:27:38;;;;;;;20.37;12.90;;;2.10;99.90;;;;;;4193148;28;20591;-62
2024/01/04 05:29:39;;;;;;;20.53;12.33;;;2.10;99.90;;;;;;4192371;28;20675;-61
2024/01/04 05:31:40;;;;;;;27.00;15.80;;;2.10;99.90;;;;;;4192309;28;20829;-62
2024/01/04 05:33:41;;;;;;;24.10;14.63;;;2.20;99.90;;;;;;4191960;28;20311;-62
2024/01/04 05:35:43;;;;;;;26.33;15.03;;;2.20;99.90;;;;;;4192833;28;20269;-61
2024/01/04 05:37:44;;;;;;;25.90;14.53;;;2.30;99.90;;;;;;4192262;28;20350;-61
2024/01/04 05:39:45;;;;;;;21.63;13.90;;;2.40;99.90;;;;;;4192866;28;20311;-63
2024/01/04 05:41:46;;;;;;;24.63;14.93;;;2.40;99.90;;;;;;4192910;28;20299;-61
2024/01/04 05:43:47;;;;;;;28.60;15.27;;;2.50;99.90;;;;;;4192185;28;20812;-65
2024/01/04 05:45:48;;;;;;;28.00;14.77;;;2.50;99.90;;;;;;4192740;28;20261;-61
2024/01/04 05:47:50;;;;;;;24.70;14.67;;;2.50;99.90;;;;;;4192769;28;20684;-62
2024/01/04 05:49:51;;;;;;;29.20;15.00;;;2.50;99.90;;;;;;4193104;28;20269;-62
2024/01/04 05:51:52;;;;;;;22.57;14.27;;;2.50;99.90;;;;;;4192894;28;20835;-62
2024/01/04 05:53:53;;;;;;;28.93;16.60;;;2.50;99.90;;;;;;4192850;28;20269;-61
2024/01/04 05:55:54;;;;;;;32.53;17.67;;;2.50;99.90;;;;;;4192196;28;20268;-62
2024/01/04 05:57:56;;;;;;;32.80;18.20;;;2.50;99.90;;;;;;4192406;28;20684;-61
2024/01/04 05:59:57;;;;;;;32.97;18.53;;;2.60;99.90;;;;;;4192993;28;20299;-63
2024/01/04 06:01:58;;;;;;;35.67;18.40;;;2.60;99.90;;;;;;4196084;28;20265;-61
2024/01/04 06:03:59;;;;;;;26.60;16.77;;;2.60;99.90;;;;;;4195671;28;20334;-63
2024/01/04 06:06:00;;;;;;;31.73;17.70;;;2.60;99.90;;;;;;4195535;28;20750;-63
2024/01/04 06:08:02;;;;;;;31.30;17.37;;;2.60;99.90;;;;;;4195341;28;20273;-63
2024/01/04 06:10:04;;;;;;;32.00;18.00;;;2.70;99.90;;;;;;4196071;28;20327;-63
2024/01/04 06:12:06;;;;;;;30.87;16.77;;;2.70;99.90;;;;;;4195205;28;20323;-62
2024/01/04 06:14:07;;;;;;;31.13;17.00;;;2.70;99.90;;;;;;4195172;28;20273;-64
2024/01/04 06:16:08;;;;;;;29.77;16.83;;;2.80;99.90;;;;;;4195745;28;20311;-63
2024/01/04 06:18:10;;;;;;;33.53;18.03;;;2.80;99.90;;;;;;4195542;28;20278;-64
2024/01/04 06:20:11;;;;;;;31.80;16.97;;;2.80;99.90;;;;;;4196358;28;20299;-63
2024/01/04 06:22:13;;;;;;;29.93;15.80;;;2.90;99.90;;;;;;4195801;28;20358;-63
2024/01/04 06:24:14;;;;;;;32.87;17.77;;;2.90;99.90;;;;;;4195737;28;20299;-64
2024/01/04 06:26:21;;;;;;;33.17;17.70;;;3.00;99.90;;;;;;4195719;28;20741;-63
2024/01/04 06:28:22;;;;;;;23.57;14.07;;;3.00;99.90;;;;;;4195536;28;20258;-62
2024/01/04 06:30:24;;;;;;;23.07;12.30;;;3.00;99.90;;;;;;4194496;28;20277;-63
2024/01/04 06:32:25;;;;;;;18.63;11.90;;;3.00;99.90;;;;;;4194805;28;20855;-63
2024/01/04 06:34:26;;;;;;;16.13;10.57;;;3.00;99.90;;;;;;4194395;28;20262;-62
2024/01/04 06:36:27;;;;;;;18.30;10.90;;;3.00;99.90;;;;;;4195078;28;20261;-62
2024/01/04 06:38:29;;;;;;;16.23;11.13;;;3.00;99.90;;;;;;4177024;28;20689;-65
2024/01/04 06:40:30;;;;;;;22.27;12.70;;;3.00;99.90;;;;;;4195434;28;20338;-62
2024/01/04 06:42:31;;;;;;;21.73;14.30;;;3.00;99.90;;;;;;4194725;28;20886;-64
2024/01/04 06:44:33;;;;;;;24.27;13.17;;;3.00;99.90;;;;;;4195304;28;20338;-62
2024/01/04 06:46:34;;;;;;;29.07;15.73;;;2.90;99.90;;;;;;4194474;28;20680;-61
2024/01/04 06:48:35;;;;;;;39.83;19.40;;;2.90;99.90;;;;;;4194410;28;20607;-63
2024/01/04 06:50:36;;;;;;;33.60;18.27;;;2.90;99.90;;;;;;4195283;28;20773;-64
2024/01/04 06:52:38;;;;;;;27.53;15.10;;;2.90;99.90;;;;;;4194954;28;20343;-61
2024/01/04 06:54:39;;;;;;;32.90;16.93;;;2.90;99.90;;;;;;4194945;28;20265;-62
2024/01/04 06:56:40;;;;;;;21.73;13.57;;;2.90;99.90;;;;;;4194333;28;20757;-63
2024/01/04 06:58:41;;;;;;;29.47;17.97;;;2.90;99.90;;;;;;4194543;28;20265;-63
2024/01/04 07:00:42;;;;;;;40.20;19.63;;;2.90;99.90;;;;;;4194220;28;20266;-63
2024/01/04 07:02:44;;;;;;;34.70;20.17;;;2.90;99.90;;;;;;4194549;28;20315;-63
2024/01/04 07:04:45;;;;;;;38.43;21.77;;;2.90;99.90;;;;;;4194456;28;20269;-62
2024/01/04 07:06:46;;;;;;;38.80;21.50;;;2.80;99.90;;;;;;4195043;28;20307;-61
2024/01/04 07:08:48;;;;;;;42.43;24.43;;;2.90;99.90;;;;;;4194297;28;20288;-62
2024/01/04 07:10:49;;;;;;;85.73;57.07;;;2.90;99.90;;;;;;4194400;28;20270;-63
2024/01/04 07:12:50;;;;;;;119.63;70.07;;;2.90;99.90;;;;;;4194164;28;20342;-62
2024/01/04 07:14:52;;;;;;;158.97;98.10;;;3.00;99.90;;;;;;4193810;28;20273;-62
2024/01/04 07:16:53;;;;;;;75.90;50.37;;;3.00;99.90;;;;;;4193801;28;20273;-63
2024/01/04 07:18:55;;;;;;;46.50;30.07;;;3.10;99.90;;;;;;4193915;28;20343;-64
2024/01/04 07:20:56;;;;;;;41.37;26.27;;;3.10;99.90;;;;;;4194412;28;20354;-63
2024/01/04 07:22:58;;;;;;;30.73;19.83;;;3.10;99.90;;;;;;4194204;28;20285;-62
2024/01/04 07:25:00;;;;;;;26.33;16.83;;;3.20;99.90;;;;;;4194559;28;20319;-63
2024/01/04 07:27:02;;;;;;;29.50;19.67;;;3.30;99.90;;;;;;4193850;28;20277;-63
2024/01/04 07:29:04;;;;;;;35.97;20.97;;;3.30;99.90;;;;;;4194497;28;20269;-62
2024/01/04 07:31:05;;;;;;;45.80;26.93;;;3.30;99.90;;;;;;4193970;28;20265;-62
2024/01/04 07:33:06;;;;;;;43.03;22.33;;;3.40;99.90;;;;;;4194006;28;20347;-64
2024/01/04 07:35:09;;;;;;;46.17;26.37;;;3.40;99.90;;;;;;4193276;28;20327;-63
2024/01/04 07:37:10;;;;;;;42.73;24.93;;;3.30;99.90;;;;;;4193611;28;20273;-64
2024/01/04 07:39:11;;;;;;;50.57;25.63;;;3.30;99.90;;;;;;4193463;28;20343;-63
2024/01/04 07:41:12;;;;;;;42.60;25.00;;;3.30;99.90;;;;;;4194169;28;20303;-63
2024/01/04 07:43:14;;;;;;;50.70;25.50;;;3.30;99.90;;;;;;4193512;28;20277;-64
2024/01/04 07:45:15;;;;;;;44.77;24.87;;;3.40;99.90;;;;;;4193976;28;20350;-64
2024/01/04 07:47:17;;;;;;;44.60;25.97;;;3.40;99.90;;;;;;4192537;28;20327;-63
2024/01/04 07:49:18;;;;;;;40.43;25.07;;;3.50;99.90;;;;;;4193872;28;20335;-64
2024/01/04 07:51:19;;;;;;;38.73;24.13;;;3.60;99.90;;;;;;4193798;28;20277;-63
2024/01/04 07:53:21;;;;;;;39.03;22.97;;;3.70;99.90;;;;;;4193338;28;20824;-63
2024/01/04 07:55:22;;;;;;;41.93;24.57;;;3.70;99.90;;;;;;4193085;28;20825;-63
2024/01/04 07:57:23;;;;;;;38.07;22.70;;;3.80;99.90;;;;;;4193542;28;20807;-63
2024/01/04 07:59:24;;;;;;;33.50;19.23;;;3.80;99.90;;;;;;4193940;28;20058;-64
2024/01/04 08:01:26;;;;;;;41.37;20.43;;;4.00;99.90;;;;;;4193688;28;20257;-63
2024/01/04 08:03:28;;;;;;;34.97;20.60;;;4.00;99.90;;;;;;4193459;28;20307;-62
2024/01/04 08:05:29;;;;;;;32.07;19.00;;;4.10;99.90;;;;;;4194049;28;20024;-63
2024/01/04 08:07:30;;;;;;;34.27;19.83;;;4.10;99.90;;;;;;4194183;28;20250;-62
2024/01/04 08:09:31;;;;;;;35.37;21.00;;;4.20;99.90;;;;;;4193943;28;20746;-63
2024/01/04 08:11:33;;;;;;;37.80;21.97;;;4.30;99.90;;;;;;4193492;28;20074;-67
2024/01/04 08:13:34;;;;;;;40.87;21.20;;;4.30;99.90;;;;;;4177395;28;20312;-65
2024/01/04 08:15:37;;;;;;;40.10;20.97;;;4.40;99.90;;;;;;4177500;28;20800;-64
2024/01/04 08:17:38;;;;;;;35.00;21.67;;;4.40;99.90;;;;;;4177043;28;20025;-65
2024/01/04 08:19:39;;;;;;;42.93;21.43;;;4.40;99.90;;;;;;4177276;28;20082;-65
2024/01/04 08:21:41;;;;;;;41.73;22.30;;;4.50;99.90;;;;;;4177116;28;20750;-63
2024/01/04 08:23:42;;;;;;;39.73;23.17;;;4.50;99.90;;;;;;4176409;28;20029;-64
2024/01/04 08:25:43;;;;;;;45.00;22.93;;;4.50;99.90;;;;;;4176695;28;20423;-62
2024/01/04 08:27:45;;;;;;;40.77;22.40;;;4.50;99.90;;;;;;4176162;28;20052;-63
2024/01/04 08:29:48;;;;;;;37.40;21.90;;;4.50;99.90;;;;;;4177271;28;20082;-63
2024/01/04 08:31:50;;;;;;;37.37;22.07;;;4.60;99.90;;;;;;4176732;28;20071;-66
2024/01/04 08:33:51;;;;;;;41.27;24.37;;;4.60;99.90;;;;;;4176849;28;20049;-66
2024/01/04 08:35:52;;;;;;;44.00;26.93;;;4.60;99.90;;;;;;4176760;28;20033;-62
2024/01/04 08:37:54;;;;;;;41.70;24.87;;;4.60;99.90;;;;;;4176215;28;20033;-68
2024/01/04 08:39:55;;;;;;;39.47;22.03;;;4.60;99.90;;;;;;4175853;28;20682;-69
2024/01/04 08:41:56;;;;;;;36.33;21.20;;;4.70;99.90;;;;;;4176281;28;20091;-68
2024/01/04 08:43:58;;;;;;;38.07;22.03;;;4.70;99.90;;;;;;4176425;28;20083;-70
2024/01/04 08:45:59;;;;;;;36.23;20.97;;;4.80;99.90;;;;;;4177103;28;20428;-63
2024/01/04 08:48:00;;;;;;;41.87;22.73;;;4.90;99.90;;;;;;4177020;28;20086;-67
2024/01/04 08:50:01;;;;;;;39.57;23.07;;;4.90;99.90;;;;;;4176270;28;20037;-69
2024/01/04 08:52:03;;;;;;;42.03;21.23;;;4.90;99.90;;;;;;4176476;28;20041;-67
2024/01/04 08:54:05;;;;;;;36.47;20.70;;;4.90;99.90;;;;;;4176689;28;20087;-68
2024/01/04 08:56:08;;;;;;;34.37;20.67;;;4.80;99.90;;;;;;4175822;28;20053;-66
2024/01/04 08:58:09;;;;;;;38.10;20.73;;;4.80;99.90;;;;;;4175142;28;20044;-67
2024/01/04 09:00:11;;;;;;;32.50;20.07;;;4.90;99.90;;;;;;4176477;28;20547;-64
2024/01/04 09:02:12;;;;;;;32.93;19.73;;;4.90;99.90;;;;;;4176483;28;20515;-64
2024/01/04 09:04:13;;;;;;;41.47;19.70;;;4.90;99.90;;;;;;4158165;28;20042;-64
2024/01/04 09:06:15;;;;;;;35.23;18.00;;;4.90;99.90;;;;;;4159566;28;20548;-65
2024/01/04 09:08:17;;;;;;;33.57;18.37;;;4.90;99.90;;;;;;4159765;28;20552;-65
2024/01/04 09:10:18;;;;;;;39.63;19.77;;;5.00;99.90;;;;;;4159197;28;20083;-63
2024/01/04 09:12:19;;;;;;;38.10;20.90;;;5.10;99.90;;;;;;4160247;28;20072;-65
2024/01/04 09:14:20;;;;;;;39.07;22.47;;;5.10;99.90;;;;;;4159600;28;20072;-65
2024/01/04 09:16:22;;;;;;;37.03;20.37;;;5.10;99.90;;;;;;4160104;28;20033;-67
2024/01/04 09:18:24;;;;;;;31.03;18.83;;;5.10;99.90;;;;;;4159684;28;20029;-67
2024/01/04 09:20:25;;;;;;;30.13;17.90;;;5.20;99.90;;;;;;4160224;28;20034;-64
2024/01/04 09:22:26;;;;;;;31.10;18.77;;;5.10;99.90;;;;;;4159618;28;20103;-62
2024/01/04 09:24:28;;;;;;;40.80;23.27;;;5.10;99.90;;;;;;4159290;28;20080;-63
2024/01/04 09:26:29;;;;;;;42.83;22.00;;;5.00;99.90;;;;;;4159406;28;20091;-66
2024/01/04 09:28:30;;;;;;;45.53;24.53;;;4.80;99.90;;;;;;4159839;28;20517;-64
2024/01/04 09:30:31;;;;;;;47.63;25.87;;;4.70;99.90;;;;;;4159866;28;20087;-67
2024/01/04 09:32:33;;;;;;;47.23;26.23;;;4.60;99.90;;;;;;4159772;28;20049;-64
2024/01/04 09:34:34;;;;;;;51.30;27.20;;;4.40;99.90;;;;;;4159829;28;20099;-63
2024/01/04 09:36:35;;;;;;;41.63;24.63;;;4.30;99.90;;;;;;4159687;28;20041;-68
2024/01/04 09:38:38;;;;;;;37.23;22.60;;;4.20;99.90;;;;;;4175365;28;20033;-64
2024/01/04 09:40:39;;;;;;;44.07;22.43;;;4.10;99.90;;;;;;4176217;28;20611;-65
2024/01/04 09:42:41;;;;;;;46.27;21.90;;;4.10;99.90;;;;;;4167499;28;20105;-63
2024/01/04 09:44:43;;;;;;;29.43;17.43;;;4.10;99.90;;;;;;4158867;28;20075;-63
2024/01/04 09:46:45;;;;;;;28.50;16.10;;;4.10;99.90;;;;;;4159715;28;20041;-63
2024/01/04 09:48:59;;;;;;;31.50;16.90;;;4.10;99.90;;;;;;4159174;28;20072;-62
2024/01/04 09:51:01;;;;;;;39.47;21.27;;;4.10;99.90;;;;;;4160075;28;20087;-61
2024/01/04 09:53:03;;;;;;;32.27;20.97;;;4.20;99.90;;;;;;4159537;28;20053;-63
2024/01/04 09:55:07;;;;;;;37.20;20.33;;;4.20;99.90;;;;;;4158195;28;20317;-62
2024/01/04 09:57:11;;;;;;;32.63;20.53;;;4.30;99.90;;;;;;4159401;28;20022;-58
2024/01/04 09:59:13;;;;;;;31.97;17.80;;;4.40;99.90;;;;;;4171216;28;20025;-62
2024/01/04 10:01:24;;;;;;;32.63;19.13;;;4.60;99.90;;;;;;4176002;28;20262;-60
2024/01/04 10:03:25;;;;;;;34.77;19.63;;;4.70;99.90;;;;;;4182566;28;20074;-62
2024/01/04 10:05:27;;;;;;;34.00;18.73;;;4.80;99.90;;;;;;4192216;28;20447;-61
2024/01/04 10:07:36;;;;;;;31.37;16.47;;;4.80;99.90;;;;;;4191142;28;20321;-63
2024/01/04 10:09:40;;;;;;;23.80;14.83;;;4.80;99.90;;;;;;4192839;28;20032;-64
2024/01/04 10:11:53;;;;;;;21.70;12.87;;;4.80;99.90;;;;;;4191494;28;20041;-61
2024/01/04 10:13:55;;;;;;;25.20;13.83;;;4.80;99.90;;;;;;4174497;28;20428;-62
2024/01/04 10:15:59;;;;;;;20.37;13.63;;;4.80;99.90;;;;;;4192460;28;20082;-61
2024/01/04 10:18:00;;;;;;;24.97;14.27;;;4.80;99.90;;;;;;4192556;28;20420;-60
2024/01/04 10:20:04;;;;;;;22.20;13.73;;;4.80;99.90;;;;;;4192415;28;20078;-61
2024/01/04 10:22:06;;;;;;;19.10;13.87;;;4.80;99.90;;;;;;4192329;28;20057;-60
2024/01/04 10:24:10;;;;;;;23.23;15.53;;;4.90;99.90;;;;;;4191286;28;20044;-61
2024/01/04 10:26:13;;;;;;;34.20;17.30;;;5.00;99.90;;;;;;4192020;28;20055;-62